Time,TemperatureF,DewpointF,PressureIn,WindDirection,WindDirectionDegrees,WindSpeedMPH,WindSpeedGustMPH,Humidity,HourlyPrecipIn,Conditions,Clouds,dailyrainin,SoftwareType,DateUTC
2013-03-12 00:07:00,41.7,22.0,29.99,SW,223,4.0,7.0,46,0.00,,,0.00,weatherlink.com 1.10,2013-03-12 04:07:00,
2013-03-12 00:22:00,41.1,22.0,29.99,South,184,1.0,5.0,47,0.00,,,0.00,weatherlink.com 1.10,2013-03-12 04:22:00,
2013-03-12 00:37:00,43.5,19.0,29.98,SSE,150,4.0,12.0,37,0.00,,,0.00,weatherlink.com 1.10,2013-03-12 04:37:00,
2013-03-12 00:52:00,44.9,17.0,29.98,SSW,195,0.0,17.0,33,0.00,,,0.00,weatherlink.com 1.10,2013-03-12 04:52:00,
2013-03-12 01:07:00,44.9,17.0,29.97,NW,319,3.0,13.0,33,0.00,,,0.00,weatherlink.com 1.10,2013-03-12 05:07:00,
2013-03-12 01:22:00,44.9,17.0,29.97,WSW,245,2.0,8.0,32,0.00,,,0.00,weatherlink.com 1.10,2013-03-12 05:22:00,
2013-03-12 01:37:00,45.1,17.0,29.98,SSW,201,2.0,10.0,32,0.00,,,0.00,weatherlink.com 1.10,2013-03-12 05:37:00,
2013-03-12 01:52:00,44.5,17.0,29.98,NNW,330,0.0,7.0,33,0.00,,,0.00,weatherlink.com 1.10,2013-03-12 05:52:00,
2013-03-12 02:07:00,43.7,18.0,29.99,South,178,1.0,6.0,35,0.00,,,0.00,weatherlink.com 1.10,2013-03-12 06:07:00,
2013-03-12 02:22:00,43.4,19.0,29.99,SSW,211,0.0,6.0,37,0.00,,,0.00,weatherlink.com 1.10,2013-03-12 06:22:00,
2013-03-12 02:37:00,43.9,18.0,29.98,SSW,204,0.0,11.0,36,0.00,,,0.00,weatherlink.com 1.10,2013-03-12 06:37:00,
2013-03-12 02:52:00,43.9,20.0,29.99,SW,236,4.0,20.0,39,0.00,,,0.00,weatherlink.com 1.10,2013-03-12 06:52:00,
2013-03-12 03:07:00,43.2,24.0,29.97,West,267,9.0,18.0,46,0.00,,,0.00,weatherlink.com 1.10,2013-03-12 07:07:00,
2013-03-12 03:22:00,42.9,26.0,29.96,South,180,7.0,16.0,51,0.00,,,0.00,weatherlink.com 1.10,2013-03-12 07:22:00,
2013-03-12 03:37:00,42.8,29.0,29.96,WSW,240,12.0,16.0,58,0.00,,,0.00,weatherlink.com 1.10,2013-03-12 07:37:00,
2013-03-12 03:53:00,42.8,31.0,29.96,South,182,5.0,10.0,64,0.00,,,0.00,weatherlink.com 1.10,2013-03-12 07:53:00,
2013-03-12 04:08:00,42.6,31.0,29.95,South,175,1.0,11.0,65,0.00,,,0.00,weatherlink.com 1.10,2013-03-12 08:08:00,
2013-03-12 04:23:00,42.9,31.0,29.95,WSW,243,3.0,12.0,62,0.00,,,0.00,weatherlink.com 1.10,2013-03-12 08:23:00,
2013-03-12 04:38:00,42.5,31.0,29.95,South,190,3.0,9.0,63,0.00,,,0.00,weatherlink.com 1.10,2013-03-12 08:38:00,
2013-03-12 04:53:00,41.8,31.0,29.95,SSW,213,4.0,7.0,65,0.00,,,0.00,weatherlink.com 1.10,2013-03-12 08:53:00,
2013-03-12 05:08:00,41.5,31.0,29.95,SSW,209,2.0,7.0,67,0.00,,,0.00,weatherlink.com 1.10,2013-03-12 09:08:00,
2013-03-12 05:23:00,41.4,30.0,29.95,SSW,205,3.0,7.0,64,0.00,,,0.00,weatherlink.com 1.10,2013-03-12 09:23:00,
2013-03-12 05:38:00,42.6,29.0,29.95,SW,234,0.0,8.0,60,0.00,,,0.00,weatherlink.com 1.10,2013-03-12 09:38:00,
2013-03-12 05:53:00,43.2,31.0,29.95,SSW,211,2.0,11.0,62,0.00,,,0.00,weatherlink.com 1.10,2013-03-12 09:53:00,
2013-03-12 06:08:00,43.6,32.0,29.94,South,184,1.0,13.0,65,0.00,,,0.00,weatherlink.com 1.10,2013-03-12 10:08:00,
2013-03-12 06:23:00,43.1,32.0,29.94,SE,138,3.0,12.0,66,0.00,,,0.00,weatherlink.com 1.10,2013-03-12 10:23:00,
2013-03-12 06:38:00,43.3,34.0,29.95,SSW,209,8.0,16.0,70,0.00,,,0.00,weatherlink.com 1.10,2013-03-12 10:38:00,
2013-03-12 06:53:00,42.2,33.0,29.95,SSW,196,7.0,9.0,71,0.00,,,0.00,weatherlink.com 1.10,2013-03-12 10:53:00,
2013-03-12 07:08:00,39.1,32.0,29.95,SSW,209,6.0,9.0,76,0.00,,,0.00,weatherlink.com 1.10,2013-03-12 11:08:00,
2013-03-12 07:23:00,39.6,33.0,29.95,SW,218,6.0,11.0,78,0.00,,,0.00,weatherlink.com 1.10,2013-03-12 11:23:00,
2013-03-12 07:38:00,39.3,34.0,29.95,WSW,258,6.0,7.0,81,0.00,,,0.00,weatherlink.com 1.10,2013-03-12 11:38:00,
2013-03-12 07:53:00,40.1,36.0,29.95,South,188,6.0,11.0,84,0.00,,,0.00,weatherlink.com 1.10,2013-03-12 11:53:00,
2013-03-12 08:08:00,40.7,36.0,29.95,South,184,8.0,14.0,84,0.01,,,0.01,weatherlink.com 1.10,2013-03-12 12:08:00,
2013-03-12 08:23:00,39.4,36.0,29.94,SSW,200,6.0,10.0,86,0.01,,,0.01,weatherlink.com 1.10,2013-03-12 12:23:00,
2013-03-12 08:38:00,38.6,36.0,29.94,SSW,208,6.0,13.0,89,0.01,,,0.01,weatherlink.com 1.10,2013-03-12 12:38:00,
2013-03-12 08:53:00,39.3,37.0,29.93,SSW,211,7.0,12.0,90,0.02,,,0.02,weatherlink.com 1.10,2013-03-12 12:53:00,
2013-03-12 09:08:00,39.0,36.0,29.93,South,190,2.0,16.0,90,0.01,,,0.02,weatherlink.com 1.10,2013-03-12 13:08:00,
2013-03-12 09:23:00,39.2,37.0,29.93,SW,232,5.0,11.0,91,0.02,,,0.03,weatherlink.com 1.10,2013-03-12 13:23:00,
2013-03-12 09:39:00,39.1,37.0,29.92,SSW,209,5.0,18.0,92,0.02,,,0.03,weatherlink.com 1.10,2013-03-12 13:39:00,
2013-03-12 09:54:00,39.2,37.0,29.92,South,189,5.0,13.0,93,0.02,,,0.04,weatherlink.com 1.10,2013-03-12 13:54:00,
2013-03-12 10:09:00,39.4,38.0,29.91,SSW,207,6.0,11.0,93,0.02,,,0.04,weatherlink.com 1.10,2013-03-12 14:09:00,
2013-03-12 10:24:00,40.1,38.0,29.91,SSW,206,8.0,18.0,93,0.01,,,0.04,weatherlink.com 1.10,2013-03-12 14:24:00,
2013-03-12 10:39:00,40.4,39.0,29.91,South,180,7.0,16.0,93,0.01,,,0.04,weatherlink.com 1.10,2013-03-12 14:39:00,
2013-03-12 10:54:00,40.6,39.0,29.90,South,184,12.0,15.0,93,0.00,,,0.04,weatherlink.com 1.10,2013-03-12 14:54:00,
2013-03-12 11:09:00,41.4,39.0,29.90,SSW,198,4.0,15.0,92,0.00,,,0.04,weatherlink.com 1.10,2013-03-12 15:09:00,
2013-03-12 11:24:00,41.6,40.0,29.90,SSW,204,8.0,18.0,93,0.01,,,0.05,weatherlink.com 1.10,2013-03-12 15:24:00,
2013-03-12 11:39:00,41.7,40.0,29.89,SSW,207,6.0,15.0,93,0.01,,,0.05,weatherlink.com 1.10,2013-03-12 15:39:00,
2013-03-12 11:54:00,41.6,40.0,29.89,WSW,257,6.0,18.0,93,0.02,,,0.06,weatherlink.com 1.10,2013-03-12 15:54:00,
2013-03-12 12:09:00,41.6,40.0,29.89,South,180,16.0,17.0,93,0.02,,,0.06,weatherlink.com 1.10,2013-03-12 16:09:00,
2013-03-12 12:24:00,41.8,40.0,29.88,South,191,10.0,17.0,93,0.02,,,0.07,weatherlink.com 1.10,2013-03-12 16:24:00,
2013-03-12 12:39:00,42.0,40.0,29.88,SSW,207,11.0,16.0,94,0.02,,,0.07,weatherlink.com 1.10,2013-03-12 16:39:00,
2013-03-12 12:54:00,42.3,41.0,29.88,SW,218,7.0,16.0,93,0.01,,,0.07,weatherlink.com 1.10,2013-03-12 16:54:00,
2013-03-12 13:09:00,42.5,41.0,29.87,SSW,203,6.0,17.0,93,0.01,,,0.07,weatherlink.com 1.10,2013-03-12 17:09:00,
2013-03-12 13:24:00,43.0,41.0,29.86,SSW,201,8.0,17.0,93,0.01,,,0.08,weatherlink.com 1.10,2013-03-12 17:24:00,
2013-03-12 13:39:00,43.0,41.0,29.86,WSW,245,4.0,20.0,92,0.02,,,0.09,weatherlink.com 1.10,2013-03-12 17:39:00,
2013-03-12 13:54:00,42.2,40.0,29.86,SW,215,10.0,19.0,93,0.02,,,0.09,weatherlink.com 1.10,2013-03-12 17:54:00,
2013-03-12 14:09:00,41.8,40.0,29.85,SSW,205,7.0,16.0,93,0.02,,,0.09,weatherlink.com 1.10,2013-03-12 18:09:00,
2013-03-12 14:24:00,41.6,40.0,29.85,SW,214,15.0,16.0,94,0.02,,,0.10,weatherlink.com 1.10,2013-03-12 18:24:00,
2013-03-12 14:39:00,41.6,40.0,29.84,SSW,206,8.0,16.0,94,0.01,,,0.10,weatherlink.com 1.10,2013-03-12 18:39:00,
2013-03-12 14:54:00,41.5,40.0,29.84,South,184,14.0,20.0,94,0.02,,,0.11,weatherlink.com 1.10,2013-03-12 18:54:00,
2013-03-12 15:09:00,41.4,40.0,29.83,SSW,197,7.0,20.0,95,0.02,,,0.11,weatherlink.com 1.10,2013-03-12 19:09:00,
2013-03-12 15:25:00,41.0,40.0,29.82,SSW,208,7.0,18.0,95,0.02,,,0.12,weatherlink.com 1.10,2013-03-12 19:25:00,
2013-03-12 15:40:00,41.1,40.0,29.82,SSW,196,11.0,22.0,95,0.03,,,0.13,weatherlink.com 1.10,2013-03-12 19:40:00,
2013-03-12 15:55:00,41.3,40.0,29.82,SSW,202,8.0,18.0,95,0.02,,,0.13,weatherlink.com 1.10,2013-03-12 19:55:00,
2013-03-12 16:10:00,41.6,40.0,29.81,South,188,12.0,20.0,95,0.03,,,0.14,weatherlink.com 1.10,2013-03-12 20:10:00,
2013-03-12 16:25:00,41.3,40.0,29.81,SSW,203,10.0,22.0,95,0.03,,,0.15,weatherlink.com 1.10,2013-03-12 20:25:00,
2013-03-12 16:40:00,41.1,40.0,29.81,SW,232,11.0,22.0,95,0.02,,,0.15,weatherlink.com 1.10,2013-03-12 20:40:00,
2013-03-12 16:55:00,40.9,40.0,29.81,SSW,202,10.0,21.0,95,0.03,,,0.16,weatherlink.com 1.10,2013-03-12 20:55:00,
2013-03-12 17:10:00,40.9,40.0,29.80,SSW,202,14.0,21.0,95,0.03,,,0.17,weatherlink.com 1.10,2013-03-12 21:10:00,
2013-03-12 17:25:00,40.8,40.0,29.80,SSW,192,10.0,21.0,95,0.03,,,0.18,weatherlink.com 1.10,2013-03-12 21:25:00,
2013-03-12 17:40:00,41.1,40.0,29.79,SSW,192,12.0,20.0,95,0.04,,,0.19,weatherlink.com 1.10,2013-03-12 21:40:00,
2013-03-12 17:55:00,41.3,40.0,29.78,South,178,10.0,22.0,95,0.04,,,0.20,weatherlink.com 1.10,2013-03-12 21:55:00,
2013-03-12 18:10:00,41.3,40.0,29.78,SW,236,9.0,23.0,95,0.04,,,0.21,weatherlink.com 1.10,2013-03-12 22:10:00,
2013-03-12 18:25:00,41.5,40.0,29.78,SSW,195,7.0,23.0,95,0.05,,,0.23,weatherlink.com 1.10,2013-03-12 22:25:00,
2013-03-12 18:40:00,41.6,40.0,29.77,SSW,202,17.0,20.0,95,0.05,,,0.24,weatherlink.com 1.10,2013-03-12 22:40:00,
2013-03-12 18:55:00,41.7,40.0,29.77,SSW,200,12.0,19.0,95,0.05,,,0.25,weatherlink.com 1.10,2013-03-12 22:55:00,
2013-03-12 19:10:00,42.0,41.0,29.76,SW,227,8.0,18.0,95,0.06,,,0.27,weatherlink.com 1.10,2013-03-12 23:10:00,
2013-03-12 19:25:00,42.0,41.0,29.75,SSW,205,8.0,21.0,95,0.06,,,0.29,weatherlink.com 1.10,2013-03-12 23:25:00,
2013-03-12 19:41:00,42.2,41.0,29.75,SSW,198,7.0,23.0,95,0.06,,,0.30,weatherlink.com 1.10,2013-03-12 23:41:00,
2013-03-12 19:56:00,42.2,41.0,29.74,SW,229,8.0,20.0,95,0.06,,,0.31,weatherlink.com 1.10,2013-03-12 23:56:00,
2013-03-12 20:11:00,42.1,41.0,29.73,SSW,194,15.0,20.0,95,0.06,,,0.33,weatherlink.com 1.10,2013-03-13 00:11:00,
2013-03-12 20:26:00,42.0,41.0,29.72,SSW,196,18.0,21.0,95,0.05,,,0.34,weatherlink.com 1.10,2013-03-13 00:26:00,
2013-03-12 21:11:00,42.2,41.0,29.70,SSW,193,14.0,19.0,95,0.04,,,0.37,weatherlink.com 1.10,2013-03-13 01:11:00,
2013-03-12 21:26:00,42.4,41.0,29.70,SSW,204,17.0,20.0,96,0.04,,,0.38,weatherlink.com 1.10,2013-03-13 01:26:00,
2013-03-12 21:41:00,42.4,41.0,29.68,SW,223,12.0,21.0,96,0.04,,,0.39,weatherlink.com 1.10,2013-03-13 01:41:00,
2013-03-12 22:11:00,42.2,41.0,29.68,SSW,198,12.0,26.0,96,0.02,,,0.39,weatherlink.com 1.10,2013-03-13 02:11:00,
2013-03-12 22:26:00,42.3,41.0,29.70,West,265,4.0,17.0,96,0.02,,,0.40,weatherlink.com 1.10,2013-03-13 02:26:00,
2013-03-12 22:41:00,42.6,42.0,29.70,NNE,12,1.0,5.0,96,0.02,,,0.41,weatherlink.com 1.10,2013-03-13 02:41:00,
2013-03-12 22:56:00,42.2,41.0,29.70,NNW,339,3.0,7.0,96,0.05,,,0.44,weatherlink.com 1.10,2013-03-13 02:56:00,
2013-03-12 23:11:00,38.1,36.0,29.71,NE,34,3.0,10.0,93,0.06,,,0.45,weatherlink.com 1.10,2013-03-13 03:11:00,
2013-03-12 23:26:00,35.8,34.0,29.72,NE,42,5.0,13.0,94,0.05,,,0.45,weatherlink.com 1.10,2013-03-13 03:26:00,
2013-03-12 23:41:00,34.8,34.0,29.73,NNE,22,1.0,5.0,95,0.04,,,0.45,weatherlink.com 1.10,2013-03-13 03:41:00,
2013-03-12 23:56:00,34.3,33.0,29.73,NE,38,3.0,5.0,96,0.01,,,0.45,weatherlink.com 1.10,2013-03-13 03:56:00,